UAL181 EDDF-KDEN
Flight info
| Callsign | UAL181 |
|---|---|
| Flight time | N/A |
| Altitude | 24000 |
| Route | MARUN7F/25C MARUN Y152 ARPEG/N0479F360 Z850 ABILU DCT RKN DCT RENEQ DCT RIVOT DCT BALIX/M084F380 DCT 62N020W 64N030W 65N040W 65N050W DCT CLAVY DCT KAGLY/N0486F380 DCT 60N076W/N0493F400 55N086W 50N094W DCT GILTE DCT NYTRO AALLE4 |
| Aircraft | B789/H-SDE1E2E3FGHIJ2J3J4J5M1RWXY/LB1D1 |
Departure
| Time | 2026-05-04 09:35 |
|---|---|
| Airport | Frankfurt Main Airport (EDDF) |
Arrival
| Time | N/A |
|---|---|
| Airport | Denver International Airport (KDEN) |
| Time | Latitude | Longitude | Altitude | Speed | Heading |
|---|---|---|---|---|---|
| 2026-05-04 08:51 | 50.04700 | 8.56856 | 377 ft | 0 kts | 294° |
| 2026-05-04 09:20 | 50.04698 | 8.56860 | 377 ft | 1 kts | 294° |
| 2026-05-04 09:20 | 50.04691 | 8.56885 | 377 ft | 3 kts | 294° |
| 2026-05-04 09:20 | 50.04685 | 8.56907 | 377 ft | 3 kts | 290° |
| 2026-05-04 09:21 | 50.04681 | 8.56932 | 377 ft | 3 kts | 263° |
| 2026-05-04 09:21 | 50.04685 | 8.56953 | 377 ft | 3 kts | 228° |
| 2026-05-04 09:21 | 50.04699 | 8.56970 | 377 ft | 5 kts | 208° |
| 2026-05-04 09:23 | 50.04698 | 8.56970 | 377 ft | 0 kts | 208° |
| 2026-05-04 09:23 | 50.04698 | 8.56969 | 377 ft | 0 kts | 208° |
| 2026-05-04 09:25 | 50.04697 | 8.56968 | 377 ft | 0 kts | 208° |
| 2026-05-04 09:26 | 50.04696 | 8.56968 | 377 ft | 0 kts | 208° |
| 2026-05-04 09:26 | 50.04696 | 8.56967 | 377 ft | 0 kts | 208° |
| 2026-05-04 09:27 | 50.04695 | 8.56967 | 377 ft | 0 kts | 208° |
| 2026-05-04 09:27 | 50.04688 | 8.56961 | 377 ft | 4 kts | 206° |
| 2026-05-04 09:28 | 50.04643 | 8.56929 | 377 ft | 9 kts | 205° |
| 2026-05-04 09:28 | 50.04574 | 8.56880 | 377 ft | 12 kts | 203° |
| 2026-05-04 09:28 | 50.04485 | 8.56849 | 377 ft | 15 kts | 181° |
| 2026-05-04 09:28 | 50.04373 | 8.56840 | 377 ft | 15 kts | 191° |
| 2026-05-04 09:29 | 50.04285 | 8.56853 | 377 ft | 9 kts | 132° |
| 2026-05-04 09:29 | 50.04286 | 8.56941 | 377 ft | 10 kts | 73° |
| 2026-05-04 09:29 | 50.04318 | 8.57089 | 377 ft | 18 kts | 70° |
| 2026-05-04 09:29 | 50.04363 | 8.57279 | 377 ft | 18 kts | 70° |
| 2026-05-04 09:30 | 50.04399 | 8.57430 | 377 ft | 15 kts | 70° |
| 2026-05-04 09:30 | 50.04436 | 8.57583 | 377 ft | 16 kts | 69° |
| 2026-05-04 09:30 | 50.04475 | 8.57743 | 377 ft | 17 kts | 68° |
| 2026-05-04 09:30 | 50.04508 | 8.57875 | 377 ft | 11 kts | 69° |
| 2026-05-04 09:31 | 50.04519 | 8.57919 | 377 ft | 0 kts | 69° |
| 2026-05-04 09:31 | 50.04519 | 8.57920 | 377 ft | 0 kts | 69° |
| 2026-05-04 09:32 | 50.04519 | 8.57921 | 377 ft | 0 kts | 69° |
| 2026-05-04 09:34 | 50.04509 | 8.58594 | 377 ft | 12 kts | 194° |
| 2026-05-04 09:34 | 50.04472 | 8.58532 | 377 ft | 6 kts | 250° |
| 2026-05-04 09:34 | 50.04448 | 8.58433 | 377 ft | 17 kts | 250° |
| 2026-05-04 09:34 | 50.04312 | 8.57860 | 377 ft | 98 kts | 250° |
| 2026-05-04 09:35 | 50.03984 | 8.56488 | 377 ft | 165 kts | 249° |
| 2026-05-04 09:35 | 50.03528 | 8.54584 | 475 ft | 202 kts | 250° |
| 2026-05-04 09:35 | 50.03048 | 8.52550 | 1253 ft | 200 kts | 251° |
| 2026-05-04 09:35 | 50.02952 | 8.50370 | 2317 ft | 199 kts | 273° |
| 2026-05-04 09:37 | 50.08337 | 8.36201 | 4974 ft | 269 kts | 321° |
| 2026-05-04 09:37 | 50.09844 | 8.34410 | 4992 ft | 271 kts | 321° |
| 2026-05-04 09:38 | 50.11415 | 8.32796 | 4952 ft | 273 kts | 334° |
| 2026-05-04 09:38 | 50.13252 | 8.32355 | 4966 ft | 272 kts | 4° |
| 2026-05-04 09:38 | 50.15068 | 8.33237 | 5041 ft | 272 kts | 22° |
| 2026-05-04 09:38 | 50.16816 | 8.34345 | 5051 ft | 282 kts | 21° |
| 2026-05-04 09:39 | 50.18745 | 8.35209 | 5593 ft | 291 kts | 6° |
| 2026-05-04 09:39 | 50.20736 | 8.34930 | 6596 ft | 283 kts | 349° |
| 2026-05-04 09:39 | 50.22677 | 8.34514 | 7558 ft | 282 kts | 352° |
| 2026-05-04 09:39 | 50.24645 | 8.34245 | 8313 ft | 288 kts | 354° |
| 2026-05-04 09:40 | 50.26678 | 8.34052 | 8647 ft | 293 kts | 355° |
| 2026-05-04 09:40 | 50.28374 | 8.33930 | 8847 ft | 291 kts | 356° |
| 2026-05-04 09:40 | 50.30423 | 8.33809 | 9112 ft | 298 kts | 356° |
| 2026-05-04 09:40 | 50.32500 | 8.33701 | 9846 ft | 299 kts | 356° |
| 2026-05-04 09:41 | 50.34606 | 8.33599 | 10430 ft | 309 kts | 356° |
| 2026-05-04 09:42 | 50.52121 | 8.32821 | 12355 ft | 377 kts | 356° |
| 2026-05-04 09:43 | 50.54746 | 8.32704 | 13016 ft | 380 kts | 356° |
| 2026-05-04 09:43 | 50.57387 | 8.32584 | 13609 ft | 384 kts | 356° |
| 2026-05-04 09:43 | 50.60034 | 8.32465 | 14147 ft | 389 kts | 356° |
| 2026-05-04 09:43 | 50.62764 | 8.32349 | 14701 ft | 394 kts | 356° |
| 2026-05-04 09:44 | 50.65515 | 8.32229 | 15246 ft | 398 kts | 356° |
| 2026-05-04 09:44 | 50.68302 | 8.32105 | 15844 ft | 401 kts | 355° |
| 2026-05-04 09:44 | 50.71102 | 8.31979 | 16438 ft | 403 kts | 355° |
| 2026-05-04 09:46 | 50.91371 | 8.31091 | 20020 ft | 426 kts | 355° |
| 2026-05-04 09:46 | 50.94352 | 8.30956 | 20505 ft | 429 kts | 355° |
| 2026-05-04 09:46 | 50.97337 | 8.30695 | 20924 ft | 431 kts | 349° |
| 2026-05-04 09:47 | 51.00245 | 8.29617 | 21336 ft | 429 kts | 338° |
| 2026-05-04 09:47 | 51.03077 | 8.28044 | 21852 ft | 429 kts | 335° |
| 2026-05-04 09:49 | 51.21812 | 8.12667 | 24932 ft | 441 kts | 326° |
| 2026-05-04 09:49 | 51.24495 | 8.10270 | 25348 ft | 443 kts | 326° |
| 2026-05-04 09:49 | 51.27192 | 8.07855 | 25749 ft | 445 kts | 325° |
| 2026-05-04 09:51 | 51.42924 | 7.91627 | 27971 ft | 449 kts | 312° |
| 2026-05-04 09:51 | 51.45220 | 7.88239 | 28325 ft | 449 kts | 311° |
| 2026-05-04 09:51 | 51.47484 | 7.84765 | 28697 ft | 450 kts | 310° |
| 2026-05-04 09:51 | 51.49724 | 7.81239 | 29034 ft | 451 kts | 309° |
| 2026-05-04 09:52 | 51.51951 | 7.77677 | 29348 ft | 453 kts | 309° |
| 2026-05-04 09:52 | 51.54195 | 7.74061 | 29670 ft | 455 kts | 308° |
| 2026-05-04 09:52 | 51.56424 | 7.70455 | 29989 ft | 457 kts | 308° |
| 2026-05-04 09:52 | 51.58660 | 7.66830 | 30302 ft | 459 kts | 308° |
| 2026-05-04 09:53 | 51.60900 | 7.63191 | 30612 ft | 460 kts | 309° |
| 2026-05-04 09:53 | 51.63189 | 7.59469 | 30916 ft | 462 kts | 309° |
| 2026-05-04 09:53 | 51.65416 | 7.55838 | 31278 ft | 462 kts | 309° |
| 2026-05-04 09:53 | 51.67677 | 7.52149 | 31653 ft | 462 kts | 309° |
| 2026-05-04 09:54 | 51.69931 | 7.48466 | 32062 ft | 460 kts | 309° |
| 2026-05-04 09:54 | 51.72183 | 7.44781 | 32460 ft | 459 kts | 309° |
| 2026-05-04 09:54 | 51.74429 | 7.41100 | 32847 ft | 458 kts | 309° |
| 2026-05-04 09:54 | 51.76661 | 7.37435 | 33227 ft | 456 kts | 309° |
| 2026-05-04 09:55 | 51.78880 | 7.33784 | 33596 ft | 455 kts | 309° |
| 2026-05-04 09:55 | 51.81102 | 7.30124 | 33939 ft | 454 kts | 309° |
| 2026-05-04 09:55 | 51.83307 | 7.26486 | 34286 ft | 453 kts | 309° |
| 2026-05-04 09:55 | 51.85484 | 7.22884 | 34572 ft | 453 kts | 309° |
| 2026-05-04 09:56 | 51.87685 | 7.19237 | 34830 ft | 453 kts | 309° |
| 2026-05-04 09:56 | 51.89896 | 7.15572 | 35096 ft | 453 kts | 309° |
| 2026-05-04 09:56 | 51.92102 | 7.11911 | 35352 ft | 454 kts | 309° |
| 2026-05-04 09:56 | 51.94315 | 7.08232 | 35616 ft | 454 kts | 309° |
| 2026-05-04 09:57 | 51.95804 | 7.05754 | 35779 ft | 454 kts | 309° |
| 2026-05-04 09:57 | 51.98014 | 7.02072 | 35944 ft | 455 kts | 309° |
| 2026-05-04 09:57 | 52.00941 | 6.97182 | 35996 ft | 461 kts | 309° |
| 2026-05-04 09:57 | 52.03174 | 6.93445 | 36145 ft | 463 kts | 309° |
| 2026-05-04 09:58 | 52.04672 | 6.90937 | 36251 ft | 465 kts | 309° |
| 2026-05-04 09:58 | 52.06935 | 6.87142 | 36434 ft | 467 kts | 309° |
| 2026-05-04 09:58 | 52.09195 | 6.83347 | 36694 ft | 467 kts | 309° |
| 2026-05-04 10:00 | 52.27563 | 6.60676 | 37982 ft | 478 kts | 321° |
| 2026-05-04 10:00 | 52.30296 | 6.57645 | 37987 ft | 477 kts | 321° |
| 2026-05-04 10:04 | 52.68653 | 6.14569 | 38008 ft | 476 kts | 320° |
| 2026-05-04 10:04 | 52.74112 | 6.08366 | 37998 ft | 476 kts | 320° |
| 2026-05-04 10:05 | 52.79554 | 6.02162 | 38001 ft | 475 kts | 320° |
| 2026-05-04 10:05 | 52.85007 | 5.95920 | 38012 ft | 478 kts | 320° |
| 2026-05-04 10:06 | 52.90475 | 5.89641 | 38011 ft | 477 kts | 320° |
| 2026-05-04 10:06 | 52.95907 | 5.83393 | 38023 ft | 477 kts | 321° |
| 2026-05-04 10:08 | 53.14955 | 5.61315 | 38022 ft | 476 kts | 321° |
| 2026-05-04 10:08 | 53.20355 | 5.55014 | 38019 ft | 476 kts | 321° |
| 2026-05-04 10:09 | 53.25818 | 5.48616 | 38029 ft | 476 kts | 321° |
| 2026-05-04 10:09 | 53.31234 | 5.42250 | 38023 ft | 476 kts | 321° |
| 2026-05-04 10:10 | 53.36621 | 5.35902 | 38029 ft | 476 kts | 321° |
| 2026-05-04 10:10 | 53.42029 | 5.29512 | 38037 ft | 476 kts | 321° |
| 2026-05-04 10:11 | 53.47445 | 5.23087 | 38032 ft | 476 kts | 320° |
| 2026-05-04 10:11 | 53.52867 | 5.16636 | 38047 ft | 476 kts | 321° |
| 2026-05-04 10:12 | 53.58274 | 5.10185 | 38054 ft | 476 kts | 321° |
| 2026-05-04 10:12 | 53.63689 | 5.03703 | 38048 ft | 476 kts | 321° |
| 2026-05-04 10:13 | 53.69063 | 4.97247 | 38059 ft | 476 kts | 321° |
| 2026-05-04 10:13 | 53.74454 | 4.90749 | 38050 ft | 476 kts | 321° |
| 2026-05-04 10:14 | 53.79840 | 4.84238 | 38050 ft | 476 kts | 321° |
| 2026-05-04 10:16 | 54.01278 | 4.58109 | 38056 ft | 476 kts | 321° |
| 2026-05-04 10:16 | 54.06628 | 4.51538 | 38045 ft | 474 kts | 321° |
| 2026-05-04 10:17 | 54.11955 | 4.44972 | 38060 ft | 475 kts | 321° |
| 2026-05-04 10:19 | 54.32630 | 4.17002 | 38046 ft | 473 kts | 315° |
| 2026-05-04 10:19 | 54.37566 | 4.09515 | 38059 ft | 473 kts | 316° |
| 2026-05-04 10:20 | 54.42506 | 4.02030 | 38054 ft | 473 kts | 316° |
| 2026-05-04 10:20 | 54.47423 | 3.94541 | 38047 ft | 472 kts | 315° |
| 2026-05-04 10:21 | 54.52327 | 3.87030 | 38060 ft | 472 kts | 315° |
| 2026-05-04 10:21 | 54.57207 | 3.79535 | 38052 ft | 472 kts | 316° |
| 2026-05-04 10:22 | 54.64539 | 3.68230 | 38055 ft | 471 kts | 316° |
| 2026-05-04 10:23 | 54.69421 | 3.60667 | 38054 ft | 470 kts | 316° |
| 2026-05-04 10:25 | 54.88839 | 3.30332 | 38051 ft | 468 kts | 315° |
| 2026-05-04 10:25 | 54.93670 | 3.22721 | 38058 ft | 469 kts | 316° |
| 2026-05-04 10:26 | 54.98468 | 3.15141 | 38045 ft | 468 kts | 316° |
| 2026-05-04 10:26 | 55.03286 | 3.07498 | 38056 ft | 467 kts | 315° |
| 2026-05-04 10:27 | 55.08087 | 2.99859 | 38052 ft | 467 kts | 315° |
| 2026-05-04 10:27 | 55.12858 | 2.92243 | 38045 ft | 467 kts | 316° |
| 2026-05-04 10:28 | 55.17681 | 2.84515 | 38058 ft | 466 kts | 315° |
| 2026-05-04 10:28 | 55.22453 | 2.76843 | 38046 ft | 466 kts | 316° |
| 2026-05-04 10:29 | 55.27228 | 2.69142 | 38051 ft | 466 kts | 315° |
| 2026-05-04 10:29 | 55.31995 | 2.61424 | 38054 ft | 465 kts | 315° |
| 2026-05-04 10:30 | 55.36714 | 2.53758 | 38043 ft | 464 kts | 316° |
| 2026-05-04 10:30 | 55.41462 | 2.46021 | 38054 ft | 464 kts | 316° |
| 2026-05-04 10:31 | 55.46200 | 2.38271 | 38042 ft | 464 kts | 316° |
| 2026-05-04 10:32 | 55.61870 | 2.12453 | 38025 ft | 461 kts | 316° |
| 2026-05-04 10:33 | 55.66559 | 2.04672 | 38017 ft | 461 kts | 316° |
| 2026-05-04 10:33 | 55.71238 | 1.96878 | 38034 ft | 461 kts | 316° |
| 2026-05-04 10:34 | 55.75877 | 1.89124 | 38026 ft | 461 kts | 316° |
| 2026-05-04 10:34 | 55.80537 | 1.81309 | 38029 ft | 461 kts | 315° |
| 2026-05-04 10:35 | 55.85201 | 1.73461 | 38033 ft | 461 kts | 315° |
| 2026-05-04 10:35 | 55.89864 | 1.65585 | 38020 ft | 461 kts | 315° |
| 2026-05-04 10:36 | 55.94488 | 1.57747 | 38029 ft | 462 kts | 315° |
| 2026-05-04 10:36 | 55.99151 | 1.49814 | 38023 ft | 462 kts | 315° |
| 2026-05-04 10:37 | 56.03781 | 1.41910 | 38012 ft | 458 kts | 315° |
| 2026-05-04 10:37 | 56.08386 | 1.34027 | 38024 ft | 457 kts | 315° |
| 2026-05-04 10:39 | 56.24422 | 1.06356 | 38010 ft | 456 kts | 315° |
| 2026-05-04 10:40 | 56.28969 | 0.98445 | 37997 ft | 456 kts | 315° |
| 2026-05-04 10:40 | 56.33522 | 0.90494 | 38008 ft | 455 kts | 315° |
| 2026-05-04 10:41 | 56.37980 | 0.82362 | 37978 ft | 454 kts | 308° |
| 2026-05-04 10:41 | 56.41596 | 0.73105 | 38007 ft | 454 kts | 303° |
| 2026-05-04 10:42 | 56.44961 | 0.63469 | 37992 ft | 453 kts | 301° |
| 2026-05-04 10:42 | 56.48106 | 0.53554 | 38002 ft | 454 kts | 299° |
| 2026-05-04 10:43 | 56.51151 | 0.43517 | 38001 ft | 454 kts | 298° |
| 2026-05-04 10:45 | 56.63121 | 0.03165 | 37998 ft | 454 kts | 298° |
| 2026-05-04 10:45 | 56.66078 | -0.06930 | 38006 ft | 447 kts | 298° |
| 2026-05-04 10:46 | 56.68985 | -0.16893 | 37991 ft | 447 kts | 298° |
| 2026-05-04 10:46 | 56.71889 | -0.26893 | 38005 ft | 447 kts | 298° |
| 2026-05-04 10:47 | 56.74780 | -0.36881 | 37991 ft | 447 kts | 298° |
| 2026-05-04 10:47 | 56.77678 | -0.46936 | 38000 ft | 447 kts | 298° |
| 2026-05-04 10:49 | 56.89166 | -0.87257 | 37995 ft | 447 kts | 297° |
| 2026-05-04 10:50 | 56.92017 | -0.97370 | 37994 ft | 447 kts | 297° |
| 2026-05-04 10:52 | 57.03317 | -1.37903 | 37997 ft | 445 kts | 297° |
| 2026-05-04 10:52 | 57.06114 | -1.48047 | 37990 ft | 444 kts | 297° |
| 2026-05-04 10:54 | 57.17167 | -1.88573 | 38002 ft | 442 kts | 296° |
| 2026-05-04 10:56 | 57.28034 | -2.29166 | 37990 ft | 440 kts | 296° |
| 2026-05-04 10:57 | 57.30747 | -2.39400 | 38001 ft | 440 kts | 296° |
| 2026-05-04 10:57 | 57.33433 | -2.49585 | 37992 ft | 440 kts | 296° |
| 2026-05-04 10:58 | 57.36107 | -2.59774 | 37992 ft | 440 kts | 296° |
| 2026-05-04 10:58 | 57.38792 | -2.70048 | 38003 ft | 440 kts | 296° |
| 2026-05-04 10:59 | 57.41434 | -2.80208 | 37991 ft | 439 kts | 296° |
| 2026-05-04 10:59 | 57.44088 | -2.90460 | 38000 ft | 440 kts | 296° |
| 2026-05-04 11:00 | 57.46743 | -3.00760 | 37995 ft | 440 kts | 296° |
| 2026-05-04 11:02 | 57.56783 | -3.40154 | 37991 ft | 437 kts | 295° |
| 2026-05-04 11:05 | 57.75899 | -4.17155 | 37984 ft | 433 kts | 295° |
| 2026-05-04 11:06 | 57.78393 | -4.27414 | 38001 ft | 433 kts | 294° |
| 2026-05-04 11:06 | 57.80893 | -4.37741 | 37994 ft | 434 kts | 294° |
| 2026-05-04 11:10 | 57.98291 | -5.10973 | 38002 ft | 438 kts | 294° |
| 2026-05-04 11:12 | 58.08001 | -5.52954 | 37990 ft | 436 kts | 293° |
| 2026-05-04 11:12 | 58.10431 | -5.63590 | 37997 ft | 436 kts | 293° |
| 2026-05-04 11:13 | 58.12832 | -5.74157 | 38003 ft | 436 kts | 293° |
| 2026-05-04 11:13 | 58.15214 | -5.84692 | 37991 ft | 437 kts | 293° |
| 2026-05-04 11:16 | 58.27039 | -6.37774 | 37993 ft | 436 kts | 292° |
| 2026-05-04 11:16 | 58.29393 | -6.48499 | 37992 ft | 436 kts | 292° |
| 2026-05-04 11:17 | 58.31738 | -6.59246 | 38000 ft | 436 kts | 292° |
| 2026-05-04 11:19 | 58.40564 | -7.00173 | 37991 ft | 434 kts | 292° |
| 2026-05-04 11:19 | 58.42855 | -7.10931 | 38002 ft | 434 kts | 292° |
| 2026-05-04 11:20 | 58.45104 | -7.21560 | 38001 ft | 434 kts | 291° |
| 2026-05-04 11:20 | 58.47355 | -7.32243 | 37994 ft | 434 kts | 291° |
| 2026-05-04 11:22 | 58.56292 | -7.75227 | 38025 ft | 434 kts | 291° |
| 2026-05-04 11:23 | 58.58506 | -7.86017 | 38038 ft | 434 kts | 291° |
| 2026-05-04 11:25 | 58.66166 | -8.23786 | 38036 ft | 435 kts | 291° |
| 2026-05-04 11:25 | 58.68336 | -8.34625 | 38030 ft | 434 kts | 290° |
| 2026-05-04 11:27 | 58.77983 | -8.83533 | 38022 ft | 433 kts | 290° |
| 2026-05-04 11:28 | 58.80099 | -8.94425 | 38032 ft | 433 kts | 290° |
| 2026-05-04 11:28 | 58.82204 | -9.05321 | 38028 ft | 434 kts | 290° |
| 2026-05-04 11:29 | 58.84305 | -9.16251 | 38023 ft | 435 kts | 290° |
| 2026-05-04 11:29 | 58.86401 | -9.27221 | 38034 ft | 435 kts | 290° |
| 2026-05-04 11:33 | 59.01237 | -10.03834 | 38007 ft | 437 kts | 301° |
| 2026-05-04 11:33 | 59.04812 | -10.13441 | 38028 ft | 439 kts | 304° |
| 2026-05-04 11:34 | 59.08421 | -10.22988 | 38016 ft | 437 kts | 303° |
| 2026-05-04 11:34 | 59.11964 | -10.32625 | 38032 ft | 438 kts | 303° |
| 2026-05-04 11:35 | 59.15465 | -10.42248 | 38022 ft | 437 kts | 303° |
| 2026-05-04 11:35 | 59.18983 | -10.51949 | 38026 ft | 437 kts | 303° |
| 2026-05-04 11:36 | 59.22493 | -10.61677 | 38031 ft | 438 kts | 303° |
| 2026-05-04 11:36 | 59.25971 | -10.71367 | 38019 ft | 436 kts | 303° |
| 2026-05-04 11:37 | 59.29453 | -10.81107 | 38031 ft | 437 kts | 303° |
| 2026-05-04 11:37 | 59.32933 | -10.90874 | 38028 ft | 437 kts | 302° |
| 2026-05-04 11:38 | 59.36431 | -11.00740 | 38037 ft | 437 kts | 302° |
| 2026-05-04 11:38 | 59.39874 | -11.10489 | 38044 ft | 437 kts | 302° |
| 2026-05-04 11:39 | 59.43326 | -11.20315 | 38025 ft | 437 kts | 302° |
| 2026-05-04 11:41 | 59.55370 | -11.54895 | 38044 ft | 437 kts | 302° |
| 2026-05-04 11:41 | 59.58791 | -11.64810 | 38043 ft | 437 kts | 302° |
| 2026-05-04 11:42 | 59.62191 | -11.74702 | 38036 ft | 436 kts | 302° |
| 2026-05-04 11:42 | 59.65613 | -11.84689 | 38049 ft | 436 kts | 302° |
| 2026-05-04 11:43 | 59.68990 | -11.94594 | 38040 ft | 436 kts | 302° |
| 2026-05-04 11:43 | 59.72377 | -12.04575 | 38041 ft | 436 kts | 302° |
| 2026-05-04 11:44 | 59.75751 | -12.14582 | 38052 ft | 437 kts | 301° |
| 2026-05-04 11:44 | 59.79125 | -12.24626 | 38038 ft | 436 kts | 301° |
| 2026-05-04 11:45 | 59.82488 | -12.34671 | 38047 ft | 436 kts | 301° |
| 2026-05-04 11:45 | 59.85849 | -12.44750 | 38049 ft | 436 kts | 301° |
| 2026-05-04 11:46 | 59.89208 | -12.54861 | 38039 ft | 437 kts | 301° |
| 2026-05-04 11:46 | 59.92532 | -12.64909 | 38054 ft | 437 kts | 301° |
| 2026-05-04 11:47 | 59.95891 | -12.75105 | 38044 ft | 438 kts | 301° |
| 2026-05-04 11:47 | 59.99213 | -12.85233 | 38047 ft | 437 kts | 301° |
| 2026-05-04 11:48 | 60.02537 | -12.95422 | 38054 ft | 435 kts | 301° |
| 2026-05-04 11:48 | 60.05836 | -13.05586 | 38044 ft | 435 kts | 301° |
| 2026-05-04 11:49 | 60.09139 | -13.15796 | 38057 ft | 436 kts | 301° |
| 2026-05-04 11:49 | 60.12419 | -13.25977 | 38048 ft | 436 kts | 301° |
| 2026-05-04 11:50 | 60.15698 | -13.36205 | 38051 ft | 437 kts | 301° |
| 2026-05-04 11:50 | 60.18981 | -13.46495 | 38058 ft | 437 kts | 301° |
| 2026-05-04 11:51 | 60.22254 | -13.56792 | 38045 ft | 437 kts | 301° |
| 2026-05-04 11:51 | 60.24973 | -13.65384 | 38057 ft | 437 kts | 301° |
| 2026-05-04 11:52 | 60.28243 | -13.75753 | 38058 ft | 438 kts | 301° |
| 2026-05-04 11:52 | 60.31500 | -13.86125 | 38047 ft | 438 kts | 300° |
| 2026-05-04 11:53 | 60.34764 | -13.96564 | 38062 ft | 438 kts | 300° |
| 2026-05-04 11:53 | 60.38005 | -14.06980 | 38054 ft | 438 kts | 300° |
| 2026-05-04 11:55 | 60.50872 | -14.48833 | 38071 ft | 437 kts | 300° |
| 2026-05-04 11:56 | 60.54069 | -14.59341 | 38088 ft | 437 kts | 300° |
| 2026-05-04 11:56 | 60.57243 | -14.69830 | 38081 ft | 436 kts | 300° |
| 2026-05-04 11:57 | 60.60417 | -14.80367 | 38083 ft | 436 kts | 300° |
| 2026-05-04 11:57 | 60.63577 | -14.90906 | 38091 ft | 436 kts | 300° |
| 2026-05-04 11:58 | 60.66738 | -15.01494 | 38080 ft | 436 kts | 300° |
| 2026-05-04 11:58 | 60.69884 | -15.12068 | 38088 ft | 435 kts | 300° |
| 2026-05-04 11:59 | 60.73007 | -15.22624 | 38091 ft | 435 kts | 300° |
| 2026-05-04 11:59 | 60.76132 | -15.33235 | 38081 ft | 435 kts | 300° |
| 2026-05-04 12:00 | 60.79245 | -15.43854 | 38098 ft | 435 kts | 300° |
| 2026-05-04 12:00 | 60.82336 | -15.54451 | 38105 ft | 435 kts | 300° |
| 2026-05-04 12:01 | 60.85434 | -15.65116 | 38094 ft | 435 kts | 300° |
| 2026-05-04 12:02 | 60.96185 | -16.02530 | 38101 ft | 434 kts | 299° |
| 2026-05-04 12:03 | 60.99247 | -16.13302 | 38109 ft | 435 kts | 299° |
| 2026-05-04 12:03 | 61.02301 | -16.24092 | 38097 ft | 434 kts | 299° |
| 2026-05-04 12:04 | 61.05331 | -16.34853 | 38107 ft | 434 kts | 299° |
| 2026-05-04 12:04 | 61.08366 | -16.45678 | 38105 ft | 434 kts | 299° |
| 2026-05-04 12:05 | 61.11366 | -16.56432 | 38098 ft | 434 kts | 299° |
| 2026-05-04 12:05 | 61.14379 | -16.67285 | 38111 ft | 434 kts | 299° |
| 2026-05-04 12:06 | 61.17378 | -16.78136 | 38101 ft | 434 kts | 298° |
| 2026-05-04 12:06 | 61.20373 | -16.89027 | 38104 ft | 434 kts | 298° |
| 2026-05-04 12:07 | 61.23364 | -16.99957 | 38113 ft | 436 kts | 298° |
| 2026-05-04 12:07 | 61.26349 | -17.10927 | 38100 ft | 436 kts | 298° |
| 2026-05-04 12:08 | 61.29325 | -17.21910 | 38110 ft | 435 kts | 298° |
| 2026-05-04 12:08 | 61.32274 | -17.32840 | 38108 ft | 435 kts | 298° |
| 2026-05-04 12:09 | 61.35226 | -17.43836 | 38102 ft | 435 kts | 298° |
| 2026-05-04 12:09 | 61.38166 | -17.54850 | 38115 ft | 435 kts | 298° |
| 2026-05-04 12:10 | 61.41105 | -17.65904 | 38104 ft | 435 kts | 298° |
| 2026-05-04 12:10 | 61.44031 | -17.76964 | 38104 ft | 433 kts | 298° |
| 2026-05-04 12:11 | 61.46940 | -17.88021 | 38116 ft | 434 kts | 298° |
| 2026-05-04 12:11 | 61.49841 | -17.99092 | 38102 ft | 433 kts | 298° |
| 2026-05-04 12:12 | 61.52727 | -18.10167 | 38110 ft | 433 kts | 298° |
| 2026-05-04 12:12 | 61.55609 | -18.21280 | 38112 ft | 433 kts | 298° |
| 2026-05-04 12:14 | 61.67044 | -18.65939 | 38118 ft | 435 kts | 297° |
| 2026-05-04 12:15 | 61.69886 | -18.77178 | 38127 ft | 434 kts | 297° |
| 2026-05-04 12:15 | 61.72722 | -18.88449 | 38125 ft | 434 kts | 297° |
| 2026-05-04 12:16 | 61.75544 | -18.99722 | 38117 ft | 434 kts | 297° |
| 2026-05-04 12:16 | 61.78362 | -19.11035 | 38130 ft | 434 kts | 297° |
| 2026-05-04 12:17 | 61.81147 | -19.22278 | 38120 ft | 434 kts | 297° |
| 2026-05-04 12:17 | 61.83940 | -19.33610 | 38121 ft | 434 kts | 297° |
| 2026-05-04 12:18 | 61.86721 | -19.44953 | 38129 ft | 434 kts | 297° |
| 2026-05-04 12:18 | 61.89489 | -19.56299 | 38116 ft | 434 kts | 297° |
| 2026-05-04 12:19 | 61.92249 | -19.67678 | 38125 ft | 433 kts | 297° |
| 2026-05-04 12:19 | 61.95009 | -19.79142 | 38126 ft | 433 kts | 297° |
| 2026-05-04 12:20 | 61.97737 | -19.90491 | 38115 ft | 433 kts | 297° |
| 2026-05-04 12:20 | 62.00531 | -20.01864 | 38126 ft | 433 kts | 297° |
| 2026-05-04 12:21 | 62.03345 | -20.13228 | 38121 ft | 434 kts | 297° |
| 2026-05-04 12:21 | 62.06172 | -20.24613 | 38120 ft | 433 kts | 297° |
| 2026-05-04 12:22 | 62.08985 | -20.35951 | 38132 ft | 432 kts | 297° |
| 2026-05-04 12:22 | 62.11793 | -20.47326 | 38141 ft | 433 kts | 297° |
| 2026-05-04 12:23 | 62.14577 | -20.58664 | 38128 ft | 433 kts | 297° |
| 2026-05-04 12:23 | 62.17371 | -20.70105 | 38138 ft | 433 kts | 297° |
| 2026-05-04 12:24 | 62.20157 | -20.81572 | 38137 ft | 433 kts | 297° |
| 2026-05-04 12:24 | 62.22928 | -20.93038 | 38129 ft | 433 kts | 297° |
| 2026-05-04 12:25 | 62.25691 | -21.04528 | 38142 ft | 433 kts | 297° |
| 2026-05-04 12:25 | 62.28445 | -21.16043 | 38133 ft | 433 kts | 297° |
| 2026-05-04 12:26 | 62.30728 | -21.25634 | 38132 ft | 433 kts | 297° |
| 2026-05-04 12:26 | 62.33461 | -21.37173 | 38144 ft | 433 kts | 297° |
| 2026-05-04 12:27 | 62.36635 | -21.50651 | 38131 ft | 433 kts | 296° |
| 2026-05-04 12:27 | 62.38892 | -21.60295 | 38139 ft | 433 kts | 296° |
| 2026-05-04 12:28 | 62.41600 | -21.71930 | 38144 ft | 433 kts | 296° |
| 2026-05-04 12:28 | 62.44294 | -21.83563 | 38133 ft | 433 kts | 296° |
| 2026-05-04 12:29 | 62.46983 | -21.95224 | 38151 ft | 433 kts | 296° |
| 2026-05-04 12:29 | 62.49664 | -22.06917 | 38188 ft | 433 kts | 296° |
| 2026-05-04 12:30 | 62.52315 | -22.18539 | 38210 ft | 433 kts | 296° |
| 2026-05-04 12:30 | 62.54978 | -22.30279 | 38221 ft | 433 kts | 296° |
| 2026-05-04 12:31 | 62.57627 | -22.42018 | 38211 ft | 433 kts | 296° |
| 2026-05-04 12:31 | 62.60264 | -22.53772 | 38215 ft | 433 kts | 296° |
| 2026-05-04 12:32 | 62.64206 | -22.71450 | 38232 ft | 433 kts | 295° |
| 2026-05-04 12:33 | 62.66826 | -22.83276 | 38243 ft | 433 kts | 295° |
| 2026-05-04 12:33 | 62.69435 | -22.95127 | 38231 ft | 433 kts | 295° |
| 2026-05-04 12:34 | 62.72031 | -23.06988 | 38238 ft | 433 kts | 295° |
| 2026-05-04 12:34 | 62.74620 | -23.18886 | 38241 ft | 433 kts | 295° |
| 2026-05-04 12:35 | 62.77200 | -23.30810 | 38231 ft | 434 kts | 295° |
| 2026-05-04 12:35 | 62.79768 | -23.42744 | 38243 ft | 434 kts | 295° |
| 2026-05-04 12:36 | 62.82312 | -23.54644 | 38235 ft | 434 kts | 295° |
| 2026-05-04 12:36 | 62.84859 | -23.66640 | 38225 ft | 434 kts | 295° |
| 2026-05-04 12:37 | 62.87393 | -23.78631 | 38236 ft | 434 kts | 295° |
| 2026-05-04 12:37 | 62.89923 | -23.90667 | 38231 ft | 434 kts | 294° |
| 2026-05-04 12:38 | 62.92440 | -24.02708 | 38224 ft | 435 kts | 294° |
| 2026-05-04 12:38 | 62.94957 | -24.14808 | 38238 ft | 435 kts | 294° |
| 2026-05-04 12:39 | 62.97463 | -24.26918 | 38225 ft | 435 kts | 294° |
| 2026-05-04 12:39 | 62.99962 | -24.39079 | 38232 ft | 435 kts | 294° |
| 2026-05-04 12:40 | 63.02449 | -24.51255 | 38235 ft | 436 kts | 294° |
| 2026-05-04 12:40 | 63.04919 | -24.63418 | 38224 ft | 435 kts | 294° |
| 2026-05-04 12:41 | 63.07382 | -24.75624 | 38236 ft | 435 kts | 294° |
| 2026-05-04 12:41 | 63.09838 | -24.87863 | 38230 ft | 436 kts | 294° |
| 2026-05-04 12:42 | 63.12283 | -25.00129 | 38230 ft | 435 kts | 294° |
| 2026-05-04 12:42 | 63.14716 | -25.12398 | 38240 ft | 434 kts | 293° |
| 2026-05-04 12:43 | 63.17128 | -25.24640 | 38227 ft | 434 kts | 293° |
| 2026-05-04 12:43 | 63.19534 | -25.36927 | 38237 ft | 435 kts | 293° |
| 2026-05-04 12:44 | 63.21929 | -25.49233 | 38235 ft | 435 kts | 293° |
| 2026-05-04 12:44 | 63.24312 | -25.61549 | 38228 ft | 435 kts | 293° |
| 2026-05-04 12:45 | 63.26688 | -25.73912 | 38241 ft | 435 kts | 293° |
| 2026-05-04 12:45 | 63.29055 | -25.86307 | 38252 ft | 435 kts | 293° |
| 2026-05-04 12:46 | 63.31404 | -25.98679 | 38278 ft | 434 kts | 293° |
| 2026-05-04 12:46 | 63.33748 | -26.11098 | 38290 ft | 435 kts | 292° |
| 2026-05-04 12:47 | 63.36081 | -26.23538 | 38281 ft | 435 kts | 292° |
| 2026-05-04 12:47 | 63.38393 | -26.35942 | 38281 ft | 435 kts | 292° |
| 2026-05-04 12:48 | 63.40711 | -26.48453 | 38288 ft | 435 kts | 292° |
| 2026-05-04 12:48 | 63.43001 | -26.60900 | 38270 ft | 435 kts | 292° |
| 2026-05-04 12:49 | 63.45293 | -26.73427 | 38272 ft | 435 kts | 292° |
| 2026-05-04 12:49 | 63.47577 | -26.85992 | 38279 ft | 435 kts | 292° |
| 2026-05-04 12:50 | 63.49848 | -26.98565 | 38267 ft | 435 kts | 292° |
| 2026-05-04 12:50 | 63.52093 | -27.11084 | 38278 ft | 435 kts | 292° |
| 2026-05-04 12:51 | 63.54336 | -27.23668 | 38274 ft | 434 kts | 291° |
| 2026-05-04 12:51 | 63.56569 | -27.36281 | 38264 ft | 435 kts | 291° |
| 2026-05-04 12:52 | 63.58788 | -27.48891 | 38243 ft | 433 kts | 291° |
| 2026-05-04 12:52 | 63.60994 | -27.61503 | 38228 ft | 434 kts | 291° |
| 2026-05-04 12:53 | 63.63187 | -27.74127 | 38237 ft | 433 kts | 291° |
| 2026-05-04 12:53 | 63.65369 | -27.86775 | 38239 ft | 433 kts | 291° |
| 2026-05-04 12:54 | 63.67539 | -27.99439 | 38230 ft | 433 kts | 291° |
| 2026-05-04 12:54 | 63.69694 | -28.12104 | 38244 ft | 433 kts | 291° |
| 2026-05-04 12:55 | 63.71846 | -28.24828 | 38238 ft | 433 kts | 291° |
| 2026-05-04 12:55 | 63.73970 | -28.37478 | 38237 ft | 433 kts | 291° |
| 2026-05-04 12:56 | 63.76099 | -28.50240 | 38247 ft | 434 kts | 290° |
| 2026-05-04 12:56 | 63.78215 | -28.63022 | 38237 ft | 434 kts | 290° |
| 2026-05-04 12:57 | 63.80306 | -28.75742 | 38245 ft | 433 kts | 290° |
| 2026-05-04 12:57 | 63.82407 | -28.88603 | 38250 ft | 435 kts | 290° |
| 2026-05-04 12:58 | 63.84497 | -29.01480 | 38238 ft | 434 kts | 290° |
| 2026-05-04 12:58 | 63.86558 | -29.14272 | 38251 ft | 434 kts | 290° |
| 2026-05-04 12:59 | 63.88625 | -29.27187 | 38249 ft | 435 kts | 290° |
| 2026-05-04 12:59 | 63.90679 | -29.40110 | 38242 ft | 434 kts | 290° |
| 2026-05-04 13:00 | 63.92716 | -29.53022 | 38257 ft | 434 kts | 290° |
| 2026-05-04 13:00 | 63.94747 | -29.65982 | 38248 ft | 434 kts | 289° |
| 2026-05-04 13:01 | 63.96757 | -29.78904 | 38249 ft | 433 kts | 289° |
| 2026-05-04 13:01 | 63.98751 | -29.91838 | 38261 ft | 433 kts | 289° |
| 2026-05-04 13:02 | 64.00635 | -30.04832 | 38248 ft | 433 kts | 288° |
| 2026-05-04 13:02 | 64.02467 | -30.17919 | 38258 ft | 433 kts | 288° |
| 2026-05-04 13:03 | 64.03977 | -30.28898 | 38263 ft | 433 kts | 288° |
| 2026-05-04 13:03 | 64.05758 | -30.41994 | 38251 ft | 433 kts | 287° |
| 2026-05-04 13:04 | 64.07537 | -30.55173 | 38263 ft | 433 kts | 287° |
| 2026-05-04 13:04 | 64.09303 | -30.68353 | 38260 ft | 432 kts | 287° |
| 2026-05-04 13:05 | 64.11053 | -30.81557 | 38259 ft | 433 kts | 287° |
| 2026-05-04 13:05 | 64.12790 | -30.94792 | 38269 ft | 434 kts | 287° |
| 2026-05-04 13:06 | 64.14509 | -31.07974 | 38258 ft | 433 kts | 287° |
| 2026-05-04 13:06 | 64.16222 | -31.21216 | 38268 ft | 433 kts | 287° |
| 2026-05-04 13:07 | 64.17925 | -31.34481 | 38269 ft | 434 kts | 286° |
| 2026-05-04 13:07 | 64.19623 | -31.47816 | 38262 ft | 434 kts | 286° |
| 2026-05-04 13:08 | 64.21291 | -31.61033 | 38279 ft | 434 kts | 286° |
| 2026-05-04 13:08 | 64.22963 | -31.74397 | 38295 ft | 435 kts | 286° |
| 2026-05-04 13:09 | 64.24622 | -31.87771 | 38292 ft | 435 kts | 286° |
| 2026-05-04 13:09 | 64.26267 | -32.01146 | 38290 ft | 434 kts | 286° |
| 2026-05-04 13:10 | 64.27900 | -32.14533 | 38302 ft | 435 kts | 286° |
| 2026-05-04 13:10 | 64.29515 | -32.27884 | 38296 ft | 434 kts | 285° |
| 2026-05-04 13:11 | 64.31123 | -32.41306 | 38309 ft | 435 kts | 285° |
| 2026-05-04 13:11 | 64.32724 | -32.54795 | 38306 ft | 435 kts | 285° |
| 2026-05-04 13:12 | 64.34308 | -32.68257 | 38303 ft | 435 kts | 285° |
| 2026-05-04 13:12 | 64.35888 | -32.81797 | 38315 ft | 435 kts | 285° |
| 2026-05-04 13:13 | 64.37446 | -32.95273 | 38306 ft | 437 kts | 285° |
| 2026-05-04 13:13 | 64.38999 | -33.08824 | 38312 ft | 436 kts | 285° |
| 2026-05-04 13:14 | 64.40544 | -33.22432 | 38318 ft | 437 kts | 284° |
| 2026-05-04 13:14 | 64.42076 | -33.36058 | 38312 ft | 437 kts | 284° |
| 2026-05-04 13:15 | 64.43600 | -33.49731 | 38319 ft | 438 kts | 284° |
| 2026-05-04 13:15 | 64.45106 | -33.63388 | 38320 ft | 438 kts | 284° |
| 2026-05-04 13:16 | 64.46593 | -33.76991 | 38313 ft | 437 kts | 284° |
| 2026-05-04 13:16 | 64.48078 | -33.90706 | 38327 ft | 439 kts | 284° |
| 2026-05-04 13:17 | 64.49551 | -34.04438 | 38319 ft | 439 kts | 284° |
| 2026-05-04 13:17 | 64.51010 | -34.18189 | 38322 ft | 438 kts | 284° |
| 2026-05-04 13:18 | 64.52457 | -34.31950 | 38331 ft | 439 kts | 283° |
| 2026-05-04 13:18 | 64.53891 | -34.45729 | 38320 ft | 439 kts | 283° |
| 2026-05-04 13:19 | 64.55315 | -34.59549 | 38330 ft | 439 kts | 283° |
| 2026-05-04 13:19 | 64.56725 | -34.73371 | 38331 ft | 440 kts | 283° |
| 2026-05-04 13:20 | 64.58116 | -34.87149 | 38324 ft | 440 kts | 283° |
| 2026-05-04 13:20 | 64.59510 | -35.01112 | 38337 ft | 440 kts | 283° |
| 2026-05-04 13:21 | 64.60877 | -35.14932 | 38329 ft | 441 kts | 283° |
| 2026-05-04 13:21 | 64.62240 | -35.28864 | 38331 ft | 441 kts | 283° |
| 2026-05-04 13:22 | 64.63592 | -35.42835 | 38341 ft | 441 kts | 282° |
| 2026-05-04 13:22 | 64.64932 | -35.56825 | 38329 ft | 441 kts | 282° |
| 2026-05-04 13:23 | 64.66252 | -35.70765 | 38339 ft | 442 kts | 282° |
| 2026-05-04 13:23 | 64.67565 | -35.84779 | 38339 ft | 442 kts | 282° |
| 2026-05-04 13:24 | 64.68867 | -35.98832 | 38332 ft | 442 kts | 282° |
| 2026-05-04 13:24 | 64.70154 | -36.12877 | 38345 ft | 442 kts | 282° |
| 2026-05-04 13:25 | 64.72073 | -36.34131 | 38333 ft | 443 kts | 282° |
| 2026-05-04 13:25 | 64.73330 | -36.48257 | 38345 ft | 443 kts | 282° |
| 2026-05-04 13:26 | 64.74573 | -36.62392 | 38341 ft | 443 kts | 281° |
| 2026-05-04 13:26 | 64.75804 | -36.76543 | 38337 ft | 443 kts | 281° |
| 2026-05-04 13:27 | 64.77021 | -36.90714 | 38348 ft | 444 kts | 281° |
| 2026-05-04 13:27 | 64.78221 | -37.04847 | 38338 ft | 445 kts | 281° |
| 2026-05-04 13:28 | 64.79420 | -37.19121 | 38342 ft | 445 kts | 281° |
| 2026-05-04 13:28 | 64.80604 | -37.33395 | 38348 ft | 445 kts | 281° |
| 2026-05-04 13:29 | 64.81773 | -37.47666 | 38336 ft | 445 kts | 281° |
| 2026-05-04 13:29 | 64.82927 | -37.61957 | 38346 ft | 446 kts | 280° |
| 2026-05-04 13:30 | 64.84065 | -37.76286 | 38344 ft | 446 kts | 280° |
| 2026-05-04 13:30 | 64.85182 | -37.90514 | 38337 ft | 445 kts | 280° |
| 2026-05-04 13:31 | 64.86300 | -38.04877 | 38349 ft | 446 kts | 280° |
| 2026-05-04 13:31 | 64.87404 | -38.19270 | 38338 ft | 446 kts | 280° |
| 2026-05-04 13:32 | 64.88490 | -38.33616 | 38341 ft | 446 kts | 280° |
| 2026-05-04 13:32 | 64.89564 | -38.48021 | 38346 ft | 446 kts | 280° |
| 2026-05-04 13:33 | 64.90626 | -38.62441 | 38334 ft | 446 kts | 279° |
| 2026-05-04 13:33 | 64.91672 | -38.76857 | 38344 ft | 446 kts | 279° |
| 2026-05-04 13:34 | 64.92706 | -38.91311 | 38340 ft | 446 kts | 279° |
| 2026-05-04 13:34 | 64.93724 | -39.05758 | 38333 ft | 446 kts | 279° |
| 2026-05-04 13:35 | 64.95224 | -39.27430 | 38341 ft | 447 kts | 279° |
| 2026-05-04 13:36 | 64.96202 | -39.41808 | 38329 ft | 446 kts | 279° |
| 2026-05-04 13:36 | 64.97178 | -39.56393 | 38341 ft | 446 kts | 279° |
| 2026-05-04 13:37 | 64.98127 | -39.70791 | 38333 ft | 447 kts | 279° |
| 2026-05-04 13:37 | 64.99069 | -39.85297 | 38327 ft | 446 kts | 279° |
| 2026-05-04 13:38 | 64.99824 | -39.99893 | 38337 ft | 447 kts | 276° |
| 2026-05-04 13:38 | 65.00423 | -40.14428 | 38325 ft | 446 kts | 275° |
| 2026-05-04 13:39 | 65.00934 | -40.29024 | 38330 ft | 445 kts | 275° |
| 2026-05-04 13:39 | 65.01398 | -40.43643 | 38329 ft | 446 kts | 274° |
| 2026-05-04 13:40 | 65.01839 | -40.58261 | 38318 ft | 445 kts | 274° |
| 2026-05-04 13:40 | 65.02197 | -40.70542 | 38328 ft | 447 kts | 274° |
| 2026-05-04 13:41 | 65.02610 | -40.85138 | 38322 ft | 447 kts | 274° |
| 2026-05-04 13:41 | 65.03008 | -40.99777 | 38314 ft | 445 kts | 274° |
| 2026-05-04 13:42 | 65.03580 | -41.21725 | 38322 ft | 445 kts | 274° |
| 2026-05-04 13:42 | 65.03949 | -41.36389 | 38310 ft | 445 kts | 274° |
| 2026-05-04 13:43 | 65.04301 | -41.51003 | 38320 ft | 444 kts | 274° |
| 2026-05-04 13:43 | 65.04637 | -41.65619 | 38313 ft | 444 kts | 274° |
| 2026-05-04 13:44 | 65.04955 | -41.80248 | 38308 ft | 444 kts | 273° |
| 2026-05-04 13:44 | 65.05256 | -41.94861 | 38317 ft | 444 kts | 273° |
| 2026-05-04 13:45 | 65.05546 | -42.09483 | 38303 ft | 444 kts | 273° |
| 2026-05-04 13:45 | 65.05821 | -42.24017 | 38311 ft | 444 kts | 273° |
| 2026-05-04 13:46 | 65.06083 | -42.38629 | 38317 ft | 444 kts | 272° |
| 2026-05-04 13:46 | 65.06330 | -42.53252 | 38304 ft | 444 kts | 272° |
| 2026-05-04 13:47 | 65.06564 | -42.67893 | 38312 ft | 444 kts | 272° |
| 2026-05-04 13:47 | 65.06786 | -42.82521 | 38309 ft | 444 kts | 272° |
| 2026-05-04 13:48 | 65.06995 | -42.97153 | 38300 ft | 444 kts | 272° |
| 2026-05-04 13:48 | 65.07187 | -43.11779 | 38312 ft | 444 kts | 272° |
| 2026-05-04 13:49 | 65.07360 | -43.26411 | 38300 ft | 445 kts | 272° |
| 2026-05-04 13:49 | 65.07520 | -43.41014 | 38301 ft | 444 kts | 271° |
| 2026-05-04 13:50 | 65.07667 | -43.55667 | 38307 ft | 445 kts | 271° |
| 2026-05-04 13:50 | 65.07803 | -43.70443 | 38294 ft | 444 kts | 271° |
| 2026-05-04 13:51 | 65.07922 | -43.85110 | 38302 ft | 444 kts | 271° |
| 2026-05-04 13:51 | 65.08027 | -43.99691 | 38300 ft | 445 kts | 271° |